createdAt,value
2022-12-11T00:01:32.713Z,132.02
2022-12-11T00:03:36.190Z,111.60
2022-12-11T00:05:40.712Z,111.63
2022-12-11T00:07:44.137Z,119.22
2022-12-11T00:09:47.554Z,117.85
2022-12-11T00:11:51.009Z,122.70
2022-12-11T00:13:54.378Z,109.35
2022-12-11T00:15:59.603Z,121.35
2022-12-11T00:18:04.428Z,139.50
2022-12-11T00:20:09.084Z,129.27
2022-12-11T00:22:12.605Z,127.20
2022-12-11T00:24:15.922Z,124.15
2022-12-11T00:26:19.672Z,127.85
2022-12-11T00:28:23.378Z,129.52
2022-12-11T00:30:26.708Z,128.38
2022-12-11T00:32:36.231Z,128.05
2022-12-11T00:34:42.418Z,127.07
2022-12-11T00:36:45.747Z,133.80
2022-12-11T00:38:50.106Z,133.32
2022-12-11T00:40:53.511Z,131.00
2022-12-11T00:42:56.816Z,130.18
2022-12-11T00:45:00.078Z,124.07
2022-12-11T00:47:03.496Z,127.20
2022-12-11T00:49:06.831Z,136.40
2022-12-11T00:51:11.677Z,135.43
2022-12-11T00:53:15.721Z,133.18
2022-12-11T00:55:19.349Z,134.15
2022-12-11T00:57:22.627Z,131.68
2022-12-11T00:59:26.003Z,127.22
2022-12-11T01:01:29.419Z,125.35
2022-12-11T01:03:32.734Z,131.70
2022-12-11T01:05:36.384Z,127.80
2022-12-11T01:07:41.138Z,125.10
2022-12-11T01:10:13.606Z,135.18
2022-12-11T01:12:17.088Z,126.07
2022-12-11T01:14:20.490Z,136.45
2022-12-11T01:16:23.862Z,136.20
2022-12-11T01:18:28.643Z,130.90
2022-12-11T01:20:32.087Z,131.13
2022-12-11T01:22:35.374Z,137.15
2022-12-11T01:24:40.013Z,138.43
2022-12-11T01:26:43.332Z,130.45
2022-12-11T01:28:49.804Z,132.40
2022-12-11T01:30:53.097Z,136.60
2022-12-11T01:32:56.477Z,134.57
2022-12-11T01:34:59.791Z,137.25
2022-12-11T01:37:03.109Z,127.38
2022-12-11T01:39:06.571Z,121.82
2022-12-11T01:41:11.792Z,138.77
2022-12-11T01:43:15.186Z,118.13
2022-12-11T01:45:36.433Z,133.40
2022-12-11T01:47:40.393Z,128.18
2022-12-11T01:49:44.516Z,136.23
2022-12-11T01:51:54.254Z,126.30
2022-12-11T01:54:02.069Z,140.23
2022-12-11T01:56:07.884Z,111.60
2022-12-11T01:58:13.811Z,150.55
2022-12-11T02:00:17.971Z,135.75
2022-12-11T02:02:25.501Z,128.65
2022-12-11T02:04:30.007Z,132.68
2022-12-11T02:06:37.067Z,122.25
2022-12-11T02:08:40.354Z,125.63
2022-12-11T02:10:54.133Z,126.95
2022-12-11T02:13:02.564Z,137.55
2022-12-11T02:15:13.490Z,104.25
2022-12-11T02:17:22.850Z,115.00
2022-12-11T02:19:45.329Z,131.98
2022-12-11T02:21:52.742Z,128.18
2022-12-11T02:24:17.105Z,137.60
2022-12-11T02:26:33.994Z,131.63
2022-12-11T02:28:43.843Z,128.07
2022-12-11T02:30:51.943Z,117.80
2022-12-11T02:32:57.874Z,123.60
2022-12-11T02:35:09.462Z,118.80
2022-12-11T02:37:19.881Z,122.28
2022-12-11T02:39:26.469Z,111.75
2022-12-11T02:41:31.120Z,107.57
2022-12-11T02:43:36.241Z,125.68
2022-12-11T02:45:42.882Z,129.25
2022-12-11T02:47:48.997Z,133.32
2022-12-11T02:49:54.125Z,137.80
2022-12-11T02:51:59.030Z,135.02
2022-12-11T02:54:04.167Z,132.85
2022-12-11T02:56:12.270Z,132.68
2022-12-11T02:58:19.235Z,148.52
2022-12-11T03:00:22.628Z,141.57
2022-12-11T03:02:27.469Z,130.57
2022-12-11T03:04:31.309Z,134.25
2022-12-11T03:06:38.798Z,132.88
2022-12-11T03:08:42.170Z,131.40
2022-12-11T03:10:45.723Z,135.15
2022-12-11T03:12:53.748Z,127.65
2022-12-11T03:15:00.314Z,128.80
2022-12-11T03:17:16.107Z,125.65
2022-12-11T03:19:29.140Z,125.78
2022-12-11T03:21:38.364Z,135.27
2022-12-11T03:23:50.030Z,124.93
2022-12-11T03:25:56.368Z,132.60
2022-12-11T03:28:08.434Z,131.85
2022-12-11T03:30:16.225Z,136.52
2022-12-11T03:32:23.122Z,126.10
2022-12-11T03:34:32.341Z,124.43
2022-12-11T03:36:38.451Z,125.88
2022-12-11T03:38:48.376Z,129.70
2022-12-11T03:40:57.125Z,134.98
2022-12-11T03:43:01.623Z,134.02
2022-12-11T03:45:08.559Z,126.57
2022-12-11T03:47:16.140Z,127.43
2022-12-11T03:49:23.856Z,134.88
2022-12-11T03:51:30.999Z,113.70
2022-12-11T03:53:36.297Z,129.95
2022-12-11T03:55:41.804Z,133.20
2022-12-11T03:57:45.515Z,126.07
2022-12-11T03:59:49.607Z,104.25
2022-12-11T04:01:53.353Z,118.93
2022-12-11T04:03:57.042Z,125.78
2022-12-11T04:06:00.415Z,110.80
2022-12-11T04:08:05.422Z,122.53
2022-12-11T04:10:09.116Z,112.53
2022-12-11T04:12:12.435Z,114.38
2022-12-11T04:14:33.790Z,111.32
2022-12-11T04:16:37.103Z,106.40
2022-12-11T04:18:58.046Z,96.93
2022-12-11T04:21:19.082Z,100.95
2022-12-11T04:23:41.180Z,95.35
2022-12-11T04:25:44.483Z,95.18
2022-12-11T04:27:50.428Z,91.88
2022-12-11T04:29:53.710Z,96.13
2022-12-11T04:31:57.093Z,96.90
2022-12-11T04:34:00.438Z,94.88
2022-12-11T04:36:03.779Z,99.80
2022-12-11T04:38:07.153Z,96.68
2022-12-11T04:40:16.391Z,105.78
2022-12-11T04:42:19.736Z,100.70
2022-12-11T04:44:23.221Z,97.97
2022-12-11T04:46:26.887Z,113.82
2022-12-11T04:48:30.849Z,107.55
2022-12-11T04:50:34.177Z,103.50
2022-12-11T04:52:37.535Z,101.93
2022-12-11T04:54:41.007Z,111.95
2022-12-11T04:56:45.641Z,105.90
2022-12-11T04:58:50.539Z,125.78
2022-12-11T05:00:54.298Z,131.40
2022-12-11T05:02:57.664Z,142.40
2022-12-11T05:05:00.989Z,126.25
2022-12-11T05:07:04.381Z,127.10
2022-12-11T05:09:08.763Z,126.75
2022-12-11T05:11:14.676Z,137.23
2022-12-11T05:13:19.349Z,134.15
2022-12-11T05:15:22.628Z,133.68
2022-12-11T05:17:25.990Z,130.15
2022-12-11T05:19:29.374Z,127.95
2022-12-11T05:21:35.198Z,137.30
2022-12-11T05:23:39.131Z,132.98
2022-12-11T05:25:42.408Z,133.18
2022-12-11T05:27:45.785Z,132.10
2022-12-11T05:29:54.808Z,134.35
2022-12-11T05:32:01.240Z,134.50
2022-12-11T05:34:04.529Z,131.38
2022-12-11T05:36:09.037Z,136.75
2022-12-11T05:38:12.610Z,128.82
2022-12-11T05:40:15.947Z,126.68
2022-12-11T05:42:22.785Z,136.63
2022-12-11T05:44:28.752Z,104.95
2022-12-11T05:46:33.492Z,120.30
2022-12-11T05:48:38.700Z,117.50
2022-12-11T05:50:42.120Z,108.82
2022-12-11T05:52:45.406Z,110.47
2022-12-11T05:54:50.320Z,106.50
2022-12-11T05:56:53.592Z,125.95
2022-12-11T05:58:57.403Z,132.93
2022-12-11T06:01:01.667Z,127.25
2022-12-11T06:03:06.545Z,126.10
2022-12-11T06:05:10.526Z,126.55
2022-12-11T06:07:14.251Z,128.07
2022-12-11T06:09:17.828Z,126.68
2022-12-11T06:11:24.126Z,128.95
2022-12-11T06:13:28.030Z,130.57
2022-12-11T06:15:31.401Z,130.85
2022-12-11T06:17:34.891Z,134.50
2022-12-11T06:19:40.948Z,127.88
2022-12-11T06:21:44.389Z,136.77
2022-12-11T06:23:49.334Z,125.63
2022-12-11T06:25:52.693Z,123.90
2022-12-11T06:27:56.179Z,134.98
2022-12-11T06:29:59.472Z,138.52
2022-12-11T06:32:03.363Z,127.72
2022-12-11T06:34:06.728Z,124.00
2022-12-11T06:36:12.866Z,133.40
2022-12-11T06:38:16.160Z,130.90
2022-12-11T06:40:19.537Z,134.40
2022-12-11T06:42:22.858Z,123.45
2022-12-11T06:44:26.273Z,130.57
2022-12-11T06:46:29.693Z,132.50
2022-12-11T06:48:33.641Z,134.45
2022-12-11T06:50:39.052Z,126.72
2022-12-11T06:52:43.667Z,131.65
2022-12-11T06:54:47.156Z,121.25
2022-12-11T06:56:50.477Z,129.65
2022-12-11T06:58:53.961Z,128.50
2022-12-11T07:00:57.389Z,123.07
2022-12-11T07:03:00.757Z,127.85
2022-12-11T07:05:04.714Z,127.50
2022-12-11T07:07:08.094Z,124.88
2022-12-11T07:09:13.100Z,124.30
2022-12-11T07:11:19.048Z,127.95
2022-12-11T07:13:22.495Z,127.03
2022-12-11T07:15:27.078Z,130.95
2022-12-11T07:17:31.181Z,129.82
2022-12-11T07:19:34.522Z,123.10
2022-12-11T07:21:38.184Z,121.18
2022-12-11T07:23:41.956Z,125.57
2022-12-11T07:25:46.680Z,120.00
2022-12-11T07:27:50.114Z,120.78
2022-12-11T07:29:54.994Z,111.30
2022-12-11T07:31:58.482Z,123.15
2022-12-11T07:34:05.051Z,123.03
2022-12-11T07:36:10.626Z,125.35
2022-12-11T07:38:13.925Z,128.57
2022-12-11T07:40:17.637Z,124.82
2022-12-11T07:42:22.324Z,129.45
2022-12-11T07:44:25.725Z,111.30
2022-12-11T07:46:30.634Z,110.72
2022-12-11T07:48:36.123Z,118.57
2022-12-11T07:50:40.046Z,122.13
2022-12-11T07:52:43.401Z,124.75
2022-12-11T07:54:46.710Z,110.72
2022-12-11T07:56:53.734Z,115.57
2022-12-11T07:59:00.540Z,134.93
2022-12-11T08:01:03.903Z,128.98
2022-12-11T08:03:07.262Z,125.75
2022-12-11T08:05:12.364Z,111.07
2022-12-11T08:07:15.874Z,133.38
2022-12-11T08:09:22.499Z,121.13
2022-12-11T08:11:26.162Z,118.65
2022-12-11T08:13:29.965Z,125.20
2022-12-11T08:15:35.134Z,122.75
2022-12-11T08:17:40.221Z,122.30
2022-12-11T08:19:43.711Z,119.72
2022-12-11T08:21:47.241Z,120.78
2022-12-11T08:23:51.523Z,119.72
2022-12-11T08:25:54.865Z,114.75
2022-12-11T08:27:58.195Z,128.70
2022-12-11T08:30:01.555Z,112.50
2022-12-11T08:32:12.057Z,115.57
2022-12-11T08:34:15.933Z,108.85
2022-12-11T08:36:21.326Z,116.10
2022-12-11T08:38:25.913Z,123.03
2022-12-11T08:40:29.365Z,129.73
2022-12-11T08:42:32.721Z,127.80
2022-12-11T08:44:36.065Z,109.03
2022-12-11T08:46:39.765Z,108.50
2022-12-11T08:48:44.869Z,120.07
2022-12-11T08:50:48.141Z,122.57
2022-12-11T08:52:51.457Z,120.40
2022-12-11T08:54:54.824Z,127.57
2022-12-11T08:56:58.490Z,131.00
2022-12-11T08:59:02.784Z,122.70
2022-12-11T09:01:10.721Z,118.03
2022-12-11T09:03:14.322Z,126.70
2022-12-11T09:05:19.105Z,126.05
2022-12-11T09:07:22.452Z,119.47
2022-12-11T09:09:25.771Z,115.43
2022-12-11T09:11:31.753Z,138.70
2022-12-11T09:13:35.150Z,121.38
2022-12-11T09:15:41.528Z,112.18
2022-12-11T09:17:44.972Z,109.93
2022-12-11T09:19:48.303Z,113.38
2022-12-11T09:21:53.073Z,115.47
2022-12-11T09:23:58.666Z,116.70
2022-12-11T09:26:04.954Z,113.68
2022-12-11T09:28:08.268Z,127.88
2022-12-11T09:30:12.273Z,127.65
2022-12-11T09:32:15.644Z,112.72
2022-12-11T09:34:19.077Z,108.80
2022-12-11T09:36:22.376Z,106.05
2022-12-11T09:38:27.136Z,107.57
2022-12-11T09:40:30.843Z,104.85
2022-12-11T09:42:49.166Z,91.82
2022-12-11T09:44:55.419Z,93.15
2022-12-11T09:46:59.600Z,105.75
2022-12-11T09:49:03.818Z,120.75
2022-12-11T09:51:17.029Z,127.75
2022-12-11T09:53:31.077Z,117.15
2022-12-11T09:55:50.986Z,132.13
2022-12-11T09:58:00.583Z,123.07
2022-12-11T10:00:13.509Z,105.97
2022-12-11T10:02:31.660Z,118.70
2022-12-11T10:04:46.847Z,113.93
2022-12-11T10:07:07.539Z,115.55
2022-12-11T10:09:20.591Z,107.70
2022-12-11T10:11:43.252Z,95.55
2022-12-11T10:13:55.819Z,95.05
2022-12-11T10:16:03.291Z,83.10
2022-12-11T10:18:12.545Z,119.43
2022-12-11T10:20:23.364Z,109.78
2022-12-11T10:22:31.382Z,113.05
2022-12-11T10:25:10.060Z,119.40
2022-12-11T10:27:16.018Z,106.80
2022-12-11T10:29:19.377Z,110.70
2022-12-11T10:31:33.047Z,95.30
2022-12-11T10:33:42.600Z,98.60
2022-12-11T10:35:49.390Z,114.95
2022-12-11T10:37:56.826Z,107.28
2022-12-11T10:40:00.143Z,99.13
2022-12-11T10:42:17.473Z,95.65
2022-12-11T10:44:23.022Z,104.38
2022-12-11T10:46:28.573Z,116.35
2022-12-11T10:48:32.119Z,101.68
2022-12-11T10:50:35.455Z,110.82
2022-12-11T10:52:44.982Z,108.05
2022-12-11T10:54:55.828Z,97.38
2022-12-11T10:57:00.311Z,102.97
2022-12-11T10:59:05.649Z,101.43
2022-12-11T11:01:11.683Z,104.57
2022-12-11T11:03:23.695Z,117.35
2022-12-11T11:05:34.224Z,111.90
2022-12-11T11:07:37.677Z,127.43
2022-12-11T11:09:41.906Z,117.55
2022-12-11T11:11:51.261Z,117.60
2022-12-11T11:14:14.535Z,119.88
2022-12-11T11:16:21.053Z,115.38
2022-12-11T11:18:27.585Z,130.52
2022-12-11T11:20:32.605Z,120.00
2022-12-11T11:22:42.960Z,119.75
2022-12-11T11:24:53.210Z,113.05
2022-12-11T11:27:12.786Z,105.45
2022-12-11T11:29:28.560Z,97.25
2022-12-11T11:31:34.546Z,115.20
2022-12-11T11:33:46.412Z,115.80
2022-12-11T11:35:53.851Z,93.82
2022-12-11T11:38:05.619Z,103.28
2022-12-11T11:40:16.146Z,85.65
2022-12-11T11:42:27.536Z,93.75
2022-12-11T11:44:38.776Z,93.97
2022-12-11T11:46:48.823Z,95.93
2022-12-11T11:49:00.227Z,100.18
2022-12-11T11:51:13.876Z,99.63
2022-12-11T11:53:23.488Z,107.47
2022-12-11T11:55:39.067Z,118.45
2022-12-11T11:57:46.760Z,102.10
2022-12-11T11:59:55.560Z,84.97
2022-12-11T12:01:59.574Z,93.80
2022-12-11T12:04:04.720Z,97.30
2022-12-11T12:06:17.227Z,98.22
2022-12-11T12:08:31.758Z,102.38
2022-12-11T12:10:45.161Z,103.13
2022-12-11T12:12:57.357Z,103.60
2022-12-11T12:15:18.267Z,105.68
2022-12-11T12:17:31.203Z,122.53
2022-12-11T12:19:46.248Z,116.72
2022-12-11T12:21:53.108Z,115.78
2022-12-11T12:24:09.582Z,106.85
2022-12-11T12:26:18.149Z,120.95
2022-12-11T12:28:33.013Z,117.75
2022-12-11T12:30:51.914Z,129.23
2022-12-11T12:33:11.801Z,123.20
2022-12-11T12:35:25.414Z,137.35
2022-12-11T12:37:45.778Z,114.03
2022-12-11T12:39:58.425Z,124.03
2022-12-11T12:42:12.357Z,112.07
2022-12-11T12:44:18.225Z,117.57
2022-12-11T12:46:34.161Z,125.32
2022-12-11T12:48:37.669Z,135.65
2022-12-11T12:50:44.683Z,122.78
2022-12-11T12:52:49.887Z,131.10
2022-12-11T12:55:16.449Z,139.20
2022-12-11T12:57:20.077Z,136.98
2022-12-11T12:59:25.079Z,122.78
2022-12-11T13:01:32.337Z,127.43
2022-12-11T13:03:38.865Z,134.63
2022-12-11T13:05:44.492Z,122.35
2022-12-11T13:07:54.259Z,130.65
2022-12-11T13:10:06.553Z,121.80
2022-12-11T13:12:15.573Z,116.28
2022-12-11T13:14:29.593Z,112.22
2022-12-11T13:16:39.025Z,131.18
2022-12-11T13:18:44.791Z,124.70
2022-12-11T13:20:51.075Z,123.32
2022-12-11T13:23:11.288Z,122.82
2022-12-11T13:25:28.547Z,124.25
2022-12-11T13:27:39.815Z,119.40
2022-12-11T13:29:43.673Z,121.45
2022-12-11T13:31:59.304Z,132.52
2022-12-11T13:34:16.126Z,134.32
2022-12-11T13:36:29.581Z,131.80
2022-12-11T13:38:33.011Z,128.93
2022-12-11T13:40:41.090Z,123.75
2022-12-11T13:42:50.426Z,136.70
2022-12-11T13:44:53.879Z,127.78
2022-12-11T13:47:01.502Z,129.93
2022-12-11T13:49:07.031Z,131.60
2022-12-11T13:51:17.828Z,120.30
2022-12-11T13:53:22.762Z,127.93
2022-12-11T13:55:28.281Z,125.05
2022-12-11T13:57:31.845Z,129.75
2022-12-11T13:59:37.011Z,124.65
2022-12-11T14:01:40.929Z,115.35
2022-12-11T14:03:53.920Z,111.35
2022-12-11T14:05:57.362Z,111.97
2022-12-11T14:08:08.289Z,105.32
2022-12-11T14:10:19.068Z,118.70
2022-12-11T14:12:22.951Z,116.78
2022-12-11T14:14:36.067Z,123.72
2022-12-11T14:16:39.471Z,93.53
2022-12-11T14:18:42.839Z,90.32
2022-12-11T14:20:54.199Z,89.22
2022-12-11T14:23:06.343Z,106.93
2022-12-11T14:25:22.056Z,106.35
2022-12-11T14:27:26.224Z,113.65
2022-12-11T14:29:32.252Z,106.20
2022-12-11T14:31:38.266Z,104.80
2022-12-11T14:33:44.928Z,110.28
2022-12-11T14:35:51.475Z,112.72
2022-12-11T14:37:55.912Z,115.13
2022-12-11T14:40:02.654Z,97.40
2022-12-11T14:42:11.742Z,116.50
2022-12-11T14:44:17.742Z,116.00
2022-12-11T14:46:27.458Z,120.63
2022-12-11T14:48:37.277Z,120.10
2022-12-11T14:50:43.893Z,118.63
2022-12-11T14:52:51.926Z,111.78
2022-12-11T14:54:59.176Z,117.50
2022-12-11T14:57:06.200Z,114.75
2022-12-11T14:59:19.263Z,115.55
2022-12-11T15:01:26.437Z,119.28
2022-12-11T15:03:34.346Z,118.45
2022-12-11T15:05:41.039Z,105.65
2022-12-11T15:07:54.676Z,117.22
2022-12-11T15:09:59.341Z,101.75
2022-12-11T15:12:12.294Z,99.68
2022-12-11T15:14:20.696Z,110.00
2022-12-11T15:16:27.704Z,117.47
2022-12-11T15:18:34.438Z,113.40
2022-12-11T15:20:38.215Z,109.28
2022-12-11T15:22:44.398Z,117.05
2022-12-11T15:24:52.529Z,110.65
2022-12-11T15:27:01.708Z,107.60
2022-12-11T15:29:07.725Z,113.35
2022-12-11T15:31:26.419Z,113.32
2022-12-11T15:33:34.280Z,118.13
2022-12-11T15:35:39.786Z,115.28
2022-12-11T15:37:53.378Z,109.95
2022-12-11T15:39:58.653Z,119.45
2022-12-11T15:42:03.450Z,112.40
2022-12-11T15:44:07.041Z,112.38
2022-12-11T15:46:10.584Z,106.43
2022-12-11T15:48:14.017Z,104.18
2022-12-11T15:50:20.811Z,118.55
2022-12-11T15:52:24.355Z,113.07
2022-12-11T15:54:28.030Z,111.50
2022-12-11T15:56:31.600Z,108.32
2022-12-11T15:58:36.709Z,108.15
2022-12-11T16:00:40.064Z,99.13
2022-12-11T16:02:43.821Z,99.07
2022-12-11T16:04:47.200Z,115.07
2022-12-11T16:06:50.722Z,112.68
2022-12-11T16:08:54.112Z,108.13
2022-12-11T16:10:57.590Z,115.40
2022-12-11T16:13:02.528Z,104.95
2022-12-11T16:15:08.340Z,106.75
2022-12-11T16:17:12.784Z,102.80
2022-12-11T16:19:16.235Z,119.80
2022-12-11T16:21:21.515Z,122.30
2022-12-11T16:23:25.267Z,95.47
2022-12-11T16:25:29.079Z,123.60
2022-12-11T16:27:32.382Z,111.55
2022-12-11T16:29:36.971Z,121.18
2022-12-11T16:31:41.695Z,107.72
2022-12-11T16:33:45.049Z,113.45
2022-12-11T16:35:48.386Z,116.53
2022-12-11T16:37:52.574Z,123.63
2022-12-11T16:39:55.974Z,109.82
2022-12-11T16:41:59.292Z,113.43
2022-12-11T16:44:03.620Z,107.43
2022-12-11T16:46:07.663Z,92.55
2022-12-11T16:48:12.498Z,86.82
2022-12-11T16:50:17.729Z,93.28
2022-12-11T16:52:22.414Z,88.07
2022-12-11T16:54:25.912Z,103.38
2022-12-11T16:56:29.208Z,111.50
2022-12-11T16:58:32.844Z,113.80
2022-12-11T17:00:36.142Z,109.03
2022-12-11T17:02:39.554Z,111.70
2022-12-11T17:04:46.144Z,111.50
2022-12-11T17:06:52.595Z,106.82
2022-12-11T17:08:56.075Z,113.00
2022-12-11T17:10:59.398Z,96.50
2022-12-11T17:13:02.728Z,111.03
2022-12-11T17:15:06.975Z,110.88
2022-12-11T17:17:10.539Z,119.00
2022-12-11T17:19:15.248Z,122.00
2022-12-11T17:21:22.222Z,114.28
2022-12-11T17:23:26.055Z,123.68
2022-12-11T17:25:29.416Z,117.60
2022-12-11T17:27:32.760Z,108.88
2022-12-11T17:29:36.258Z,113.30
2022-12-11T17:31:40.308Z,106.00
2022-12-11T17:33:44.161Z,110.88
2022-12-11T17:35:47.506Z,106.70
2022-12-11T17:37:52.520Z,109.82
2022-12-11T17:39:55.874Z,118.72
2022-12-11T17:41:59.286Z,120.20
2022-12-11T17:44:02.712Z,123.13
2022-12-11T17:46:06.804Z,122.13
2022-12-11T17:48:10.512Z,115.45
2022-12-11T17:50:14.053Z,116.93
2022-12-11T17:52:17.457Z,125.35
2022-12-11T17:54:22.512Z,132.38
2022-12-11T17:56:26.170Z,126.55
2022-12-11T17:58:29.824Z,117.55
2022-12-11T18:00:33.576Z,125.82
2022-12-11T18:02:36.963Z,119.53
2022-12-11T18:04:40.706Z,113.15
2022-12-11T18:06:44.142Z,112.85
2022-12-11T18:08:47.465Z,120.28
2022-12-11T18:10:53.208Z,118.30
2022-12-11T18:12:56.728Z,118.22
2022-12-11T18:15:01.537Z,116.05
2022-12-11T18:17:05.231Z,116.65
2022-12-11T18:19:09.276Z,121.63
2022-12-11T18:21:14.458Z,123.45
2022-12-11T18:23:18.110Z,121.53
2022-12-11T18:25:22.630Z,120.40
2022-12-11T18:27:29.252Z,118.13
2022-12-11T18:29:32.866Z,118.78
2022-12-11T18:31:41.915Z,117.43
2022-12-11T18:33:46.870Z,126.03
2022-12-11T18:35:51.748Z,128.45
2022-12-11T18:37:55.230Z,133.05
2022-12-11T18:39:58.931Z,108.50
2022-12-11T18:42:31.585Z,112.30
2022-12-11T18:44:27.624Z,106.20
2022-12-11T18:46:31.331Z,108.82
2022-12-11T18:48:35.114Z,114.32
2022-12-11T18:50:46.350Z,104.13
2022-12-11T18:52:54.064Z,123.63
2022-12-11T18:54:57.666Z,117.03
2022-12-11T18:57:01.250Z,120.40
2022-12-11T18:59:05.111Z,123.95
2022-12-11T19:01:12.621Z,116.07
2022-12-11T19:03:16.173Z,109.85
2022-12-11T19:05:20.182Z,112.22
2022-12-11T19:07:23.793Z,127.63
2022-12-11T19:09:27.415Z,128.85
2022-12-11T19:11:32.471Z,120.93
2022-12-11T19:13:36.668Z,121.15
2022-12-11T19:15:40.925Z,123.80
2022-12-11T19:17:45.867Z,114.80
2022-12-11T19:19:49.460Z,120.40
2022-12-11T19:21:52.821Z,124.38
2022-12-11T19:23:56.258Z,124.35
2022-12-11T19:25:59.582Z,110.38
2022-12-11T19:28:02.995Z,116.13
2022-12-11T19:30:07.332Z,115.90
2022-12-11T19:32:10.783Z,115.97
2022-12-11T19:34:15.604Z,118.20
2022-12-11T19:36:20.781Z,109.90
2022-12-11T19:38:24.147Z,113.18
2022-12-11T19:40:27.532Z,104.22
2022-12-11T19:42:30.853Z,109.60
2022-12-11T19:44:34.192Z,119.07
2022-12-11T19:46:37.653Z,119.60
2022-12-11T19:48:41.757Z,122.72
2022-12-11T19:50:46.672Z,127.60
2022-12-11T19:52:49.986Z,123.53
2022-12-11T19:54:53.424Z,128.70
2022-12-11T19:56:56.775Z,127.35
2022-12-11T19:59:00.772Z,126.90
2022-12-11T20:01:05.055Z,127.72
2022-12-11T20:03:08.473Z,125.25
2022-12-11T20:05:12.189Z,127.93
2022-12-11T20:07:17.013Z,134.48
2022-12-11T20:09:20.451Z,127.25
2022-12-11T20:11:23.916Z,129.07
2022-12-11T20:13:27.219Z,125.35
2022-12-11T20:15:31.816Z,130.35
2022-12-11T20:17:36.715Z,133.15
2022-12-11T20:19:40.427Z,133.80
2022-12-11T20:21:44.476Z,132.05
2022-12-11T20:23:49.575Z,127.95
2022-12-11T20:25:58.707Z,137.65
2022-12-11T20:28:02.328Z,136.38
2022-12-11T20:30:07.384Z,130.80
2022-12-11T20:32:12.225Z,124.95
2022-12-11T20:34:15.916Z,129.75
2022-12-11T20:36:21.472Z,130.30
2022-12-11T20:38:26.865Z,128.85
2022-12-11T20:40:34.775Z,123.47
2022-12-11T20:42:38.118Z,131.30
2022-12-11T20:44:47.191Z,131.77
2022-12-11T20:46:52.227Z,132.52
2022-12-11T20:48:58.399Z,135.00
2022-12-11T20:51:02.003Z,127.30
2022-12-11T20:53:05.384Z,126.20
2022-12-11T20:55:10.556Z,133.35
2022-12-11T20:57:16.354Z,139.27
2022-12-11T20:59:19.996Z,132.20
2022-12-11T21:01:25.346Z,129.07
2022-12-11T21:03:29.654Z,133.52
2022-12-11T21:05:33.011Z,131.82
2022-12-11T21:07:36.350Z,130.95
2022-12-11T21:09:41.012Z,127.85
2022-12-11T21:11:44.955Z,123.97
2022-12-11T21:13:49.873Z,120.05
2022-12-11T21:15:56.624Z,130.95
2022-12-11T21:18:00.045Z,135.75
2022-12-11T21:20:03.420Z,128.90
2022-12-11T21:22:06.723Z,127.63
2022-12-11T21:24:16.243Z,134.60
2022-12-11T21:26:20.635Z,134.52
2022-12-11T21:28:23.928Z,132.73
2022-12-11T21:30:28.654Z,125.60
2022-12-11T21:32:32.254Z,122.82
2022-12-11T21:34:35.608Z,126.00
2022-12-11T21:36:39.777Z,127.30
2022-12-11T21:38:45.138Z,126.22
2022-12-11T21:40:48.475Z,120.60
2022-12-11T21:42:51.800Z,129.60
2022-12-11T21:47:21.121Z,120.65
2022-12-11T21:49:24.496Z,121.03
2022-12-11T21:51:35.965Z,123.85
2022-12-11T21:53:41.225Z,123.53
2022-12-11T21:55:44.580Z,121.05
2022-12-11T21:57:47.924Z,129.10
2022-12-11T21:59:51.186Z,114.93
2022-12-11T22:01:54.684Z,123.05
2022-12-11T22:03:59.886Z,131.88
2022-12-11T22:06:03.236Z,130.55
2022-12-11T22:08:07.150Z,124.28
2022-12-11T22:10:11.268Z,127.53
2022-12-11T22:12:22.098Z,114.20
2022-12-11T22:14:25.566Z,116.40
2022-12-11T22:16:29.364Z,116.18
2022-12-11T22:18:32.685Z,127.65
2022-12-11T22:20:37.328Z,122.47
2022-12-11T22:22:40.655Z,129.27
2022-12-11T22:24:43.938Z,123.93
2022-12-11T22:26:47.388Z,123.55
2022-12-11T22:28:51.279Z,123.53
2022-12-11T22:30:54.589Z,121.50
2022-12-11T22:32:58.094Z,128.60
2022-12-11T22:35:01.389Z,126.15
2022-12-11T22:37:06.083Z,123.15
2022-12-11T22:39:09.595Z,129.73
2022-12-11T22:41:17.579Z,116.57
2022-12-11T22:43:25.273Z,120.28
2022-12-11T22:45:28.588Z,127.50
2022-12-11T22:47:32.074Z,124.68
2022-12-11T22:49:36.624Z,121.35
2022-12-11T22:51:39.907Z,119.15
2022-12-11T22:53:44.570Z,119.07
2022-12-11T22:55:47.852Z,125.68
2022-12-11T22:57:51.609Z,125.43
2022-12-11T22:59:56.814Z,131.38
2022-12-11T23:02:00.123Z,128.43
2022-12-11T23:04:03.420Z,126.18
2022-12-11T23:06:08.853Z,129.88
2022-12-11T23:08:12.240Z,127.38
2022-12-11T23:10:17.009Z,123.85
2022-12-11T23:12:20.352Z,125.88
2022-12-11T23:14:23.741Z,126.35
2022-12-11T23:16:27.632Z,124.20
2022-12-11T23:18:31.268Z,130.18
2022-12-11T23:20:34.748Z,125.55
2022-12-11T23:22:38.482Z,125.05
2022-12-11T23:24:41.942Z,125.53
2022-12-11T23:26:48.023Z,127.40
2022-12-11T23:28:51.653Z,130.05
2022-12-11T23:30:55.068Z,127.32
2022-12-11T23:32:58.416Z,122.13
2022-12-11T23:35:01.920Z,129.15
2022-12-11T23:37:05.802Z,131.77
2022-12-11T23:39:09.124Z,122.68
2022-12-11T23:41:14.271Z,123.18
2022-12-11T23:43:18.903Z,125.22
2022-12-11T23:45:22.267Z,124.15
2022-12-11T23:47:25.729Z,127.95
2022-12-11T23:49:29.089Z,128.20
2022-12-11T23:51:33.310Z,125.57
2022-12-11T23:53:36.922Z,128.80
2022-12-11T23:55:41.352Z,123.78
2022-12-11T23:57:44.666Z,119.72
2022-12-11T23:59:49.319Z,128.73
